createdAt,value
2018-05-12T00:00:12.480Z,15.93
2018-05-12T00:02:40.011Z,15.90
2018-05-12T00:05:07.549Z,15.40
2018-05-12T00:07:35.033Z,15.87
2018-05-12T00:10:02.669Z,15.13
2018-05-12T00:12:30.170Z,14.87
2018-05-12T00:14:57.705Z,15.53
2018-05-12T00:17:25.157Z,14.93
2018-05-12T00:19:52.623Z,16.80
2018-05-12T00:22:20.129Z,15.03
2018-05-12T00:24:47.615Z,14.00
2018-05-12T00:27:15.891Z,14.20
2018-05-12T00:29:43.385Z,15.80
2018-05-12T00:32:10.963Z,15.73
2018-05-12T00:34:38.515Z,16.70
2018-05-12T00:37:06.128Z,17.03
2018-05-12T00:39:34.351Z,15.67
2018-05-12T00:42:01.851Z,16.20
2018-05-12T00:44:29.334Z,16.90
2018-05-12T00:46:57.934Z,16.07
2018-05-12T00:49:26.166Z,17.10
2018-05-12T00:51:53.639Z,16.20
2018-05-12T00:54:21.166Z,15.93
2018-05-12T00:56:48.643Z,18.50
2018-05-12T00:59:16.152Z,16.50
2018-05-12T01:01:43.612Z,17.43
2018-05-12T01:04:11.896Z,16.63
2018-05-12T01:06:39.376Z,15.70
2018-05-12T01:09:07.291Z,17.20
2018-05-12T01:11:34.770Z,17.23
2018-05-12T01:14:02.293Z,17.33
2018-05-12T01:16:29.787Z,16.57
2018-05-12T01:18:57.253Z,16.80
2018-05-12T01:21:24.786Z,16.87
2018-05-12T01:23:52.264Z,18.17
2018-05-12T01:26:19.734Z,16.27
2018-05-12T01:28:47.203Z,16.10
2018-05-12T01:31:14.752Z,18.17
2018-05-12T01:33:43.086Z,17.30
2018-05-12T01:36:11.344Z,17.80
2018-05-12T01:38:39.198Z,19.00
2018-05-12T01:41:06.926Z,16.80
2018-05-12T01:43:35.181Z,15.37
2018-05-12T01:46:02.698Z,18.57
2018-05-12T01:48:30.262Z,16.20
2018-05-12T01:50:57.728Z,17.40
2018-05-12T01:53:25.304Z,18.80
2018-05-12T01:55:52.830Z,17.47
2018-05-12T01:58:20.298Z,18.23
2018-05-12T02:00:47.915Z,17.83
2018-05-12T02:03:16.080Z,17.20
2018-05-12T02:05:43.584Z,17.57
2018-05-12T02:08:12.282Z,18.10
2018-05-12T02:10:39.732Z,16.77
2018-05-12T02:13:07.987Z,17.67
2018-05-12T02:15:35.495Z,17.33
2018-05-12T02:18:02.983Z,15.37
2018-05-12T02:20:30.530Z,16.20
2018-05-12T02:22:58.008Z,17.40
2018-05-12T02:25:25.583Z,17.83
2018-05-12T02:27:53.036Z,17.63
2018-05-12T02:30:20.598Z,16.40
2018-05-12T02:32:49.046Z,17.50
2018-05-12T02:35:16.610Z,15.83
2018-05-12T02:37:44.173Z,17.30
2018-05-12T02:40:11.620Z,17.33
2018-05-12T02:42:39.119Z,16.30
2018-05-12T02:45:06.673Z,16.97
2018-05-12T02:47:34.914Z,17.13
2018-05-12T02:50:03.066Z,17.90
2018-05-12T02:52:30.515Z,17.00
2018-05-12T02:54:58.094Z,20.33
2018-05-12T02:57:25.635Z,17.63
2018-05-12T02:59:53.128Z,18.60
2018-05-12T03:02:20.586Z,18.47
2018-05-12T03:04:48.195Z,19.43
2018-05-12T03:07:16.350Z,19.50
2018-05-12T03:09:43.969Z,20.47
2018-05-12T03:12:11.510Z,21.87
2018-05-12T03:14:39.157Z,21.90
2018-05-12T03:17:06.863Z,19.60
2018-05-12T03:19:34.472Z,21.93
2018-05-12T03:22:02.035Z,21.80
2018-05-12T03:24:29.883Z,22.60
2018-05-12T03:26:57.408Z,21.93
2018-05-12T03:29:24.958Z,22.90
2018-05-12T03:31:52.710Z,23.43
2018-05-12T03:34:20.271Z,24.00
2018-05-12T03:36:47.821Z,23.50
2018-05-12T03:39:15.264Z,22.43
2018-05-12T03:41:42.936Z,24.00
2018-05-12T03:44:10.616Z,21.93
2018-05-12T03:46:38.153Z,25.33
2018-05-12T03:49:05.660Z,24.40
2018-05-12T03:51:33.297Z,24.20
2018-05-12T03:54:00.867Z,23.40
2018-05-12T03:56:28.438Z,25.93
2018-05-12T03:58:55.985Z,24.93
2018-05-12T04:01:23.539Z,24.37
2018-05-12T04:03:51.219Z,25.60
2018-05-12T04:06:18.878Z,25.00
2018-05-12T04:08:46.676Z,24.17
2018-05-12T04:11:14.262Z,26.77
2018-05-12T04:13:41.911Z,25.80
2018-05-12T04:16:09.437Z,26.00
2018-05-12T04:18:36.966Z,25.67
2018-05-12T04:21:04.729Z,27.93
2018-05-12T04:23:32.232Z,28.07
2018-05-12T04:25:59.906Z,26.13
2018-05-12T04:28:28.202Z,27.60
2018-05-12T04:30:55.792Z,25.40
2018-05-12T04:33:24.292Z,25.50
2018-05-12T04:35:51.918Z,23.50
2018-05-12T04:38:19.524Z,21.43
2018-05-12T04:40:47.104Z,24.00
2018-05-12T04:43:15.556Z,21.13
2018-05-12T04:45:43.307Z,21.77
2018-05-12T04:48:11.184Z,20.37
2018-05-12T04:50:38.787Z,18.93
2018-05-12T04:53:06.392Z,19.60
2018-05-12T04:55:34.157Z,17.83
2018-05-12T04:58:01.885Z,19.17
2018-05-12T05:00:29.677Z,16.90
2018-05-12T05:02:58.479Z,17.40
2018-05-12T05:05:26.102Z,16.93
2018-05-12T05:07:54.757Z,17.50
2018-05-12T05:10:22.414Z,18.00
2018-05-12T05:12:49.973Z,17.30
2018-05-12T05:15:17.675Z,18.00
2018-05-12T05:17:45.212Z,16.57
2018-05-12T05:20:12.898Z,17.93
2018-05-12T05:22:40.494Z,15.33
2018-05-12T05:25:07.943Z,15.50
2018-05-12T05:27:35.568Z,16.20
2018-05-12T05:30:04.251Z,16.93
2018-05-12T05:32:31.878Z,16.43
2018-05-12T05:34:59.473Z,14.30
2018-05-12T05:37:26.979Z,15.40
2018-05-12T05:39:54.645Z,14.10
2018-05-12T05:42:23.140Z,15.20
2018-05-12T05:44:50.720Z,15.37
2018-05-12T05:47:19.263Z,15.80
2018-05-12T05:49:46.887Z,16.17
2018-05-12T05:52:14.595Z,15.40
2018-05-12T05:54:42.439Z,14.77
2018-05-12T05:57:10.079Z,14.30
2018-05-12T05:59:37.622Z,15.10
2018-05-12T06:02:05.782Z,15.20
2018-05-12T06:04:33.410Z,13.43
2018-05-12T06:07:05.104Z,14.20
2018-05-12T06:09:32.667Z,12.93
2018-05-12T06:12:00.227Z,13.70
2018-05-12T06:14:27.895Z,12.30
2018-05-12T06:16:55.506Z,13.13
2018-05-12T06:19:23.101Z,13.27
2018-05-12T06:21:50.634Z,14.10
2018-05-12T06:24:18.195Z,14.37
2018-05-12T06:26:45.848Z,13.73
2018-05-12T06:29:13.394Z,13.10
2018-05-12T06:31:40.990Z,12.47
2018-05-12T06:34:08.678Z,13.70
2018-05-12T06:36:36.659Z,12.90
2018-05-12T06:39:04.109Z,12.50
2018-05-12T06:41:32.775Z,12.27
2018-05-12T06:44:00.376Z,12.10
2018-05-12T06:46:28.795Z,11.13
2018-05-12T06:48:56.391Z,10.70
2018-05-12T06:51:24.051Z,10.20
2018-05-12T06:53:51.616Z,9.90
2018-05-12T06:56:19.327Z,10.30
2018-05-12T06:58:47.652Z,10.13
2018-05-12T07:01:15.343Z,9.20
2018-05-12T07:03:42.946Z,9.70
2018-05-12T07:06:10.594Z,10.13
2018-05-12T07:08:38.208Z,10.03
2018-05-12T07:11:05.753Z,9.83
2018-05-12T07:13:33.309Z,8.80
2018-05-12T07:16:00.837Z,9.37
2018-05-12T07:18:28.436Z,9.97
2018-05-12T07:20:56.783Z,10.23
2018-05-12T07:23:25.132Z,10.03
2018-05-12T07:25:52.734Z,9.40
2018-05-12T07:28:20.357Z,9.17
2018-05-12T07:30:47.966Z,8.77
2018-05-12T07:33:15.451Z,9.13
2018-05-12T07:35:42.981Z,8.97
2018-05-12T07:38:10.488Z,8.23
2018-05-12T07:40:38.146Z,8.53
2018-05-12T07:43:05.663Z,8.87
2018-05-12T07:45:33.241Z,8.03
2018-05-12T07:48:01.594Z,8.37
2018-05-12T07:50:29.289Z,8.07
2018-05-12T07:52:57.583Z,8.20
2018-05-12T07:55:25.123Z,8.03
2018-05-12T07:57:52.638Z,7.60
2018-05-12T08:00:21.014Z,8.00
2018-05-12T08:02:49.588Z,6.70
2018-05-12T08:05:17.095Z,8.50
2018-05-12T08:07:44.784Z,7.97
2018-05-12T08:10:12.549Z,7.00
2018-05-12T08:12:40.229Z,5.53
2018-05-12T08:15:07.743Z,4.93
2018-05-12T08:17:35.456Z,5.70
2018-05-12T08:20:03.731Z,5.63
2018-05-12T08:22:31.622Z,5.63
2018-05-12T08:24:59.153Z,6.63
2018-05-12T08:27:27.320Z,7.53
2018-05-12T08:29:55.065Z,6.57
2018-05-12T08:32:25.628Z,6.97
2018-05-12T08:34:53.179Z,6.07
2018-05-12T08:37:20.796Z,6.97
2018-05-12T08:39:48.528Z,6.10
2018-05-12T08:42:16.149Z,5.80
2018-05-12T08:44:43.747Z,5.60
2018-05-12T08:47:11.460Z,4.70
2018-05-12T08:49:38.998Z,4.27
2018-05-12T08:52:06.568Z,4.10
2018-05-12T08:54:34.216Z,4.07
2018-05-12T08:57:01.763Z,4.50
2018-05-12T08:59:31.104Z,5.27
2018-05-12T09:02:00.269Z,3.90
2018-05-12T09:04:28.697Z,3.30
2018-05-12T09:06:56.249Z,3.93
2018-05-12T09:09:23.751Z,4.13
2018-05-12T09:11:51.667Z,4.17
2018-05-12T09:14:19.182Z,5.07
2018-05-12T09:16:46.720Z,4.30
2018-05-12T09:19:14.271Z,4.67
2018-05-12T09:21:41.715Z,5.00
2018-05-12T09:24:09.307Z,4.53
2018-05-12T09:26:36.775Z,4.17
2018-05-12T09:29:04.307Z,3.40
2018-05-12T09:31:32.746Z,3.10
2018-05-12T09:34:00.474Z,3.27
2018-05-12T09:36:28.014Z,3.33
2018-05-12T09:38:56.317Z,3.10
2018-05-12T09:41:24.550Z,3.80
2018-05-12T09:43:52.078Z,3.80
2018-05-12T09:46:19.602Z,3.23
2018-05-12T09:48:47.136Z,3.10
2018-05-12T09:51:14.711Z,3.63
2018-05-12T09:53:42.993Z,3.77
2018-05-12T09:56:11.273Z,4.30
2018-05-12T09:58:38.766Z,4.37
2018-05-12T10:01:07.041Z,3.40
2018-05-12T10:03:34.579Z,3.30
2018-05-12T10:06:02.175Z,3.30
2018-05-12T10:08:30.097Z,3.03
2018-05-12T10:10:57.914Z,3.60
2018-05-12T10:13:25.449Z,3.63
2018-05-12T10:15:53.593Z,3.07
2018-05-12T10:18:21.062Z,3.10
2018-05-12T10:20:48.568Z,2.50
2018-05-12T10:23:16.922Z,2.97
2018-05-12T10:25:44.405Z,3.53
2018-05-12T10:28:11.853Z,3.30
2018-05-12T10:30:39.398Z,3.53
2018-05-12T10:33:06.853Z,3.63
2018-05-12T10:35:34.304Z,3.80
2018-05-12T10:38:01.870Z,3.37
2018-05-12T10:40:29.356Z,3.80
2018-05-12T10:42:56.853Z,3.80
2018-05-12T10:45:25.249Z,3.60
2018-05-12T10:47:52.679Z,3.10
2018-05-12T10:50:20.211Z,3.13
2018-05-12T10:52:47.715Z,3.10
2018-05-12T10:55:16.101Z,2.70
2018-05-12T10:57:43.531Z,3.13
2018-05-12T11:00:11.077Z,3.13
2018-05-12T11:02:38.588Z,3.43
2018-05-12T11:05:07.008Z,3.70
2018-05-12T11:07:35.298Z,4.53
2018-05-12T11:10:02.777Z,3.33
2018-05-12T11:12:30.357Z,2.83
2018-05-12T11:14:57.931Z,3.80
2018-05-12T11:17:25.443Z,3.20
2018-05-12T11:19:52.937Z,3.93
2018-05-12T11:22:20.496Z,4.40
2018-05-12T11:24:48.173Z,4.00
2018-05-12T11:27:15.731Z,3.40
2018-05-12T11:29:43.246Z,4.50
2018-05-12T11:32:10.937Z,4.80
2018-05-12T11:34:38.959Z,3.57
2018-05-12T11:37:06.485Z,4.07
2018-05-12T11:39:34.153Z,3.90
2018-05-12T11:42:02.464Z,3.57
2018-05-12T11:44:30.305Z,3.83
2018-05-12T11:46:57.710Z,3.80
2018-05-12T11:49:25.254Z,3.97
2018-05-12T11:51:52.789Z,4.53
2018-05-12T11:54:20.224Z,3.40
2018-05-12T11:56:48.529Z,4.00
2018-05-12T11:59:16.133Z,3.60
2018-05-12T12:01:43.643Z,4.00
2018-05-12T12:04:11.953Z,4.20
2018-05-12T12:06:40.221Z,4.00
2018-05-12T12:09:07.974Z,4.57
2018-05-12T12:11:36.217Z,4.63
2018-05-12T12:14:03.740Z,3.80
2018-05-12T12:16:31.391Z,3.63
2018-05-12T12:18:59.531Z,3.97
2018-05-12T12:21:27.016Z,3.87
2018-05-12T12:23:55.300Z,3.67
2018-05-12T12:26:23.628Z,4.70
2018-05-12T12:28:51.094Z,4.47
2018-05-12T12:31:18.584Z,4.90
2018-05-12T12:33:47.007Z,4.80
2018-05-12T12:36:16.419Z,6.03
2018-05-12T12:38:43.995Z,5.53
2018-05-12T12:41:12.267Z,5.80
2018-05-12T12:43:40.516Z,4.43
2018-05-12T12:46:08.057Z,4.83
2018-05-12T12:48:35.574Z,4.63
2018-05-12T12:51:03.067Z,4.47
2018-05-12T12:53:30.633Z,4.77
2018-05-12T12:55:58.170Z,4.53
2018-05-12T12:58:25.764Z,5.40
2018-05-12T13:00:53.314Z,4.10
2018-05-12T13:03:20.956Z,6.70
2018-05-12T13:05:48.456Z,4.90
2018-05-12T13:08:16.983Z,4.90
2018-05-12T13:10:44.476Z,5.37
2018-05-12T13:13:11.957Z,4.37
2018-05-12T13:15:39.422Z,4.40
2018-05-12T13:18:06.931Z,4.53
2018-05-12T13:20:35.214Z,4.20
2018-05-12T13:23:03.487Z,4.57
2018-05-12T13:25:31.001Z,3.90
2018-05-12T13:27:58.554Z,3.90
2018-05-12T13:30:26.039Z,4.93
2018-05-12T13:32:53.473Z,4.93
2018-05-12T13:35:21.027Z,5.03
2018-05-12T13:37:49.268Z,4.60
2018-05-12T13:40:16.825Z,4.17
2018-05-12T13:42:44.317Z,4.60
2018-05-12T13:45:11.818Z,4.30
2018-05-12T13:47:42.375Z,4.70
2018-05-12T13:50:09.837Z,4.13
2018-05-12T13:52:37.390Z,5.00
2018-05-12T13:55:05.253Z,4.93
2018-05-12T13:57:32.775Z,5.83
2018-05-12T14:00:00.249Z,5.90
2018-05-12T14:02:27.831Z,5.60
2018-05-12T14:04:55.488Z,9.43
2018-05-12T14:07:23.074Z,8.33
2018-05-12T14:09:50.612Z,6.60
2018-05-12T14:12:18.862Z,5.47
2018-05-12T14:14:47.519Z,5.70
2018-05-12T14:17:15.732Z,7.00
2018-05-12T14:19:43.250Z,5.67
2018-05-12T14:22:10.742Z,6.57
2018-05-12T14:24:38.300Z,7.50
2018-05-12T14:27:06.654Z,5.50
2018-05-12T14:29:34.200Z,6.53
2018-05-12T14:32:01.703Z,5.23
2018-05-12T14:34:29.353Z,5.60
2018-05-12T14:36:56.948Z,5.80
2018-05-12T14:39:26.256Z,5.63
2018-05-12T14:41:54.465Z,6.20
2018-05-12T14:44:22.193Z,6.53
2018-05-12T14:46:49.649Z,5.93
2018-05-12T14:49:17.493Z,5.77
2018-05-12T14:51:44.979Z,6.13
2018-05-12T14:54:12.439Z,5.00
2018-05-12T14:56:39.978Z,5.70
2018-05-12T14:59:08.208Z,5.50
2018-05-12T15:01:35.729Z,5.30
2018-05-12T15:04:03.290Z,5.37
2018-05-12T15:06:31.517Z,5.10
2018-05-12T15:09:00.707Z,4.60
2018-05-12T15:11:28.517Z,5.07
2018-05-12T15:13:56.890Z,4.70
2018-05-12T15:16:26.053Z,5.37
2018-05-12T15:18:53.643Z,5.03
2018-05-12T15:21:21.330Z,4.40
2018-05-12T15:23:48.839Z,5.37
2018-05-12T15:26:17.181Z,5.53
2018-05-12T15:28:44.643Z,5.53
2018-05-12T15:31:12.229Z,5.23
2018-05-12T15:33:39.749Z,4.77
2018-05-12T15:36:07.308Z,5.17
2018-05-12T15:38:34.794Z,4.80
2018-05-12T15:41:03.211Z,5.27
2018-05-12T15:43:30.674Z,4.77
2018-05-12T15:45:58.165Z,5.20
2018-05-12T15:48:26.040Z,5.20
2018-05-12T15:50:53.943Z,5.20
2018-05-12T15:53:21.504Z,5.37
2018-05-12T15:55:49.167Z,5.40
2018-05-12T15:58:16.675Z,5.40
2018-05-12T16:00:44.144Z,4.47
2018-05-12T16:03:12.023Z,4.83
2018-05-12T16:05:40.263Z,4.93
2018-05-12T16:08:07.733Z,4.57
2018-05-12T16:10:36.076Z,5.40
2018-05-12T16:13:03.669Z,5.17
2018-05-12T16:15:31.381Z,4.80
2018-05-12T16:17:59.037Z,4.80
2018-05-12T16:20:27.765Z,5.40
2018-05-12T16:22:55.209Z,4.90
2018-05-12T16:25:22.789Z,4.60
2018-05-12T16:27:50.234Z,5.30
2018-05-12T16:30:17.753Z,5.83
2018-05-12T16:32:45.368Z,5.20
2018-05-12T16:35:12.978Z,6.20
2018-05-12T16:37:40.785Z,5.23
2018-05-12T16:40:08.303Z,5.77
2018-05-12T16:42:36.637Z,5.70
2018-05-12T16:45:04.180Z,6.33
2018-05-12T16:47:32.534Z,5.83
2018-05-12T16:50:00.125Z,5.77
2018-05-12T16:52:27.644Z,6.67
2018-05-12T16:54:58.031Z,6.70
2018-05-12T16:57:25.566Z,6.53
2018-05-12T16:59:53.999Z,6.27
2018-05-12T17:02:23.137Z,7.00
2018-05-12T17:04:50.690Z,6.77
2018-05-12T17:07:18.241Z,6.47
2018-05-12T17:09:45.887Z,6.57
2018-05-12T17:12:14.195Z,5.13
2018-05-12T17:14:41.697Z,5.80
2018-05-12T17:17:09.645Z,6.13
2018-05-12T17:19:37.838Z,5.40
2018-05-12T17:22:06.593Z,6.10
2018-05-12T17:24:34.134Z,5.60
2018-05-12T17:27:01.873Z,6.50
2018-05-12T17:29:29.718Z,6.20
2018-05-12T17:31:57.270Z,6.13
2018-05-12T17:34:24.960Z,6.17
2018-05-12T17:36:52.509Z,6.10
2018-05-12T17:39:20.983Z,5.70
2018-05-12T17:41:48.484Z,5.37
2018-05-12T17:44:16.105Z,6.00
2018-05-12T17:46:43.594Z,6.00
2018-05-12T17:49:11.080Z,5.27
2018-05-12T17:51:39.552Z,5.50
2018-05-12T17:54:07.404Z,5.50
2018-05-12T17:56:35.296Z,6.50
2018-05-12T17:59:03.594Z,6.53
2018-05-12T18:01:31.912Z,6.20
2018-05-12T18:03:59.615Z,5.40
2018-05-12T18:06:26.989Z,5.90
2018-05-12T18:08:55.346Z,6.40
2018-05-12T18:11:22.909Z,5.80
2018-05-12T18:13:50.331Z,5.87
2018-05-12T18:16:17.825Z,6.43
2018-05-12T18:18:45.480Z,5.97
2018-05-12T18:21:13.127Z,6.10
2018-05-12T18:23:40.619Z,5.40
2018-05-12T18:26:08.121Z,6.73
2018-05-12T18:28:36.547Z,6.10
2018-05-12T18:31:04.155Z,6.50
2018-05-12T18:33:31.654Z,6.53
2018-05-12T18:35:59.158Z,6.50
2018-05-12T18:38:26.694Z,6.33
2018-05-12T18:40:54.630Z,5.47
2018-05-12T18:43:22.415Z,6.60
2018-05-12T18:45:49.918Z,7.00
2018-05-12T18:48:18.330Z,6.73
2018-05-12T18:50:45.958Z,7.27
2018-05-12T18:53:13.619Z,6.97
2018-05-12T18:55:42.742Z,7.77
2018-05-12T18:58:10.927Z,7.70
2018-05-12T19:00:39.278Z,7.60
2018-05-12T19:03:07.631Z,7.70
2018-05-12T19:05:35.391Z,8.40
2018-05-12T19:08:03.044Z,9.80
2018-05-12T19:10:30.598Z,9.50
2018-05-12T19:12:58.322Z,9.47
2018-05-12T19:15:26.598Z,9.00
2018-05-12T19:17:54.154Z,10.03
2018-05-12T19:20:21.708Z,10.50
2018-05-12T19:22:49.266Z,12.03
2018-05-12T19:25:17.528Z,14.20
2018-05-12T19:27:45.087Z,14.40
2018-05-12T19:30:12.831Z,14.50
2018-05-12T19:32:40.379Z,13.90
2018-05-12T19:35:07.801Z,15.33
2018-05-12T19:37:35.340Z,16.40
2018-05-12T19:40:03.598Z,16.00
2018-05-12T19:42:31.234Z,17.47
2018-05-12T19:44:58.904Z,16.47
2018-05-12T19:47:27.302Z,16.03
2018-05-12T19:49:54.823Z,17.93
2018-05-12T19:52:22.652Z,16.37
2018-05-12T19:54:50.925Z,18.53
2018-05-12T19:57:18.465Z,17.60
2018-05-12T19:59:46.722Z,17.97
2018-05-12T20:02:14.321Z,20.13
2018-05-12T20:04:41.946Z,19.47
2018-05-12T20:07:10.267Z,19.30
2018-05-12T20:09:38.433Z,18.50
2018-05-12T20:12:05.928Z,19.17
2018-05-12T20:14:33.474Z,20.73
2018-05-12T20:17:00.993Z,20.10
2018-05-12T20:19:28.500Z,21.40
2018-05-12T20:21:56.105Z,20.70
2018-05-12T20:24:24.035Z,20.17
2018-05-12T20:26:51.530Z,20.90
2018-05-12T20:29:19.073Z,20.80
2018-05-12T20:31:46.607Z,25.13
2018-05-12T20:34:14.951Z,23.27
2018-05-12T20:36:42.479Z,23.50
2018-05-12T20:39:10.420Z,22.73
2018-05-12T20:41:37.815Z,23.00
2018-05-12T20:44:05.345Z,25.70
2018-05-12T20:46:33.662Z,24.13
2018-05-12T20:49:01.434Z,24.40
2018-05-12T20:51:28.922Z,24.67
2018-05-12T20:53:56.525Z,25.07
2018-05-12T20:56:25.690Z,25.17
2018-05-12T20:58:53.742Z,24.60
2018-05-12T21:01:22.049Z,26.33
2018-05-12T21:03:49.748Z,25.83
2018-05-12T21:06:17.392Z,26.60
2018-05-12T21:08:44.931Z,26.90
2018-05-12T21:11:13.167Z,27.30
2018-05-12T21:13:40.722Z,28.53
2018-05-12T21:16:08.614Z,28.00
2018-05-12T21:18:36.215Z,28.10
2018-05-12T21:21:04.565Z,26.80
2018-05-12T21:23:33.012Z,26.93
2018-05-12T21:26:00.450Z,28.00
2018-05-12T21:28:28.009Z,28.63
2018-05-12T21:30:55.575Z,29.40
2018-05-12T21:33:23.075Z,30.07
2018-05-12T21:35:50.901Z,27.60
2018-05-12T21:38:18.509Z,29.93
2018-05-12T21:40:46.014Z,29.97
2018-05-12T21:43:13.558Z,29.60
2018-05-12T21:45:41.361Z,29.00
2018-05-12T21:48:09.540Z,30.90
2018-05-12T21:50:37.740Z,30.97
2018-05-12T21:53:05.293Z,30.70
2018-05-12T21:55:32.880Z,29.20
2018-05-12T21:58:00.350Z,31.10
2018-05-12T22:00:27.881Z,30.93
2018-05-12T22:02:56.113Z,30.20
2018-05-12T22:05:24.454Z,31.67
2018-05-12T22:07:51.991Z,31.20
2018-05-12T22:10:20.296Z,31.97
2018-05-12T22:12:47.835Z,31.50
2018-05-12T22:15:15.455Z,32.07
2018-05-12T22:17:43.069Z,31.87
2018-05-12T22:20:11.305Z,32.03
2018-05-12T22:22:39.617Z,32.83
2018-05-12T22:25:07.152Z,35.23
2018-05-12T22:27:34.650Z,31.83
2018-05-12T22:30:02.289Z,34.73
2018-05-12T22:32:29.813Z,30.57
2018-05-12T22:34:57.343Z,31.77
2018-05-12T22:37:25.248Z,29.93
2018-05-12T22:39:52.760Z,31.70
2018-05-12T22:42:21.139Z,34.50
2018-05-12T22:44:49.395Z,34.00
2018-05-12T22:47:16.954Z,33.60
2018-05-12T22:49:44.475Z,34.00
2018-05-12T22:52:12.002Z,35.03
2018-05-12T22:54:40.314Z,35.20
2018-05-12T22:57:07.931Z,34.57
2018-05-12T22:59:35.449Z,36.87
2018-05-12T23:02:02.944Z,35.77
2018-05-12T23:04:30.464Z,35.77
2018-05-12T23:06:57.959Z,36.00
2018-05-12T23:09:25.430Z,38.80
2018-05-12T23:11:52.978Z,36.60
2018-05-12T23:14:20.536Z,36.03
2018-05-12T23:16:48.054Z,35.10
2018-05-12T23:19:16.316Z,38.07
2018-05-12T23:21:43.798Z,36.50
2018-05-12T23:24:11.388Z,34.73
2018-05-12T23:26:38.898Z,32.50
2018-05-12T23:29:06.426Z,37.47
2018-05-12T23:31:35.243Z,35.93
2018-05-12T23:34:02.771Z,34.87
2018-05-12T23:36:31.011Z,38.27
2018-05-12T23:38:58.550Z,36.33
2018-05-12T23:41:26.150Z,34.20
2018-05-12T23:43:53.677Z,37.70
2018-05-12T23:46:21.450Z,37.87
2018-05-12T23:48:49.011Z,37.73
2018-05-12T23:51:16.615Z,39.33
2018-05-12T23:53:44.804Z,38.77
2018-05-12T23:56:12.266Z,37.70
2018-05-12T23:58:40.623Z,39.07
